Time;durP1;ratioP1;P1;durP2;ratioP2;P2;SDS_P1;SDS_P2;PMS_P1;PMS_P2;Temp;Humidity;BMP_temperature;BMP_pressure;BME280_temperature;BME280_humidity;BME280_pressure;Samples;Min_cycle;Max_cycle;Signal;HPM_P1;HPM_P2
2022/10/18 00:01:15;;;;;;;13.18;6.32;;;;;;;18.41;100.00;100633.94;12228768;19;20010;-85
2022/10/18 00:05:17;;;;;;;16.90;4.63;;;;;;;18.44;100.00;100624.13;12221670;19;20030;-83
2022/10/18 00:09:18;;;;;;;14.48;6.25;;;;;;;18.44;100.00;100622.22;12203451;19;20010;-85
2022/10/18 00:13:21;;;;;;;16.67;5.53;;;;;;;18.41;100.00;100617.19;12223586;19;20019;-84
2022/10/18 00:17:23;;;;;;;18.50;5.63;;;;;;;18.43;100.00;100619.69;12227561;19;20015;-83
2022/10/18 00:21:25;;;;;;;17.90;6.10;;;;;;;18.41;100.00;100617.19;12202876;19;20014;-84
2022/10/18 00:25:27;;;;;;;11.57;5.93;;;;;;;18.41;100.00;100627.50;12221665;19;20011;-86
2022/10/18 00:29:29;;;;;;;16.92;5.88;;;;;;;18.40;100.00;100617.47;12220911;19;20332;-84
2022/10/18 00:33:30;;;;;;;15.90;6.55;;;;;;;18.40;100.00;100623.88;12190775;19;20022;-85
2022/10/18 00:37:33;;;;;;;10.25;5.55;;;;;;;18.29;100.00;100630.59;12217817;19;20512;-85
2022/10/18 00:41:36;;;;;;;14.90;4.97;;;;;;;18.24;100.00;100635.34;12219902;19;20487;-83
2022/10/18 00:45:39;;;;;;;11.27;5.40;;;;;;;18.21;100.00;100628.38;12196472;19;20014;-83
2022/10/18 00:49:50;;;;;;;16.40;6.15;;;;;;;18.21;100.00;100632.00;12219160;19;20027;-85
2022/10/18 00:53:52;;;;;;;19.73;6.72;;;;;;;18.18;100.00;100621.41;12195464;19;20356;-84
2022/10/18 00:57:54;;;;;;;18.73;6.43;;;;;;;18.17;100.00;100622.53;12228643;19;20053;-85
2022/10/18 01:01:56;;;;;;;16.48;6.38;;;;;;;18.15;100.00;100612.78;12272769;19;21376;-81
2022/10/18 01:05:57;;;;;;;17.70;6.47;;;;;;;18.13;100.00;100607.47;12218798;19;20017;-84
2022/10/18 01:10:02;;;;;;;19.58;6.43;;;;;;;18.13;100.00;100610.25;12212275;19;20124;-84
2022/10/18 01:14:35;;;;;;;23.00;6.97;;;;;;;18.14;100.00;100599.91;12225300;19;20030;-81
2022/10/18 01:18:42;;;;;;;18.98;6.85;;;;;;;18.12;100.00;100589.06;12190230;19;20007;-83
2022/10/18 01:22:51;;;;;;;19.63;7.45;;;;;;;18.12;100.00;100591.84;12209826;19;20011;-84
2022/10/18 01:27:11;;;;;;;24.90;7.72;;;;;;;18.08;100.00;100585.16;12189931;19;20002;-84
2022/10/18 01:31:19;;;;;;;21.33;7.85;;;;;;;18.09;100.00;100581.25;12211678;19;20345;-84
2022/10/18 01:35:30;;;;;;;19.50;7.60;;;;;;;18.10;100.00;100587.66;12211047;19;20006;-85
2022/10/18 01:39:37;;;;;;;20.65;8.00;;;;;;;18.09;100.00;100580.44;12191772;19;20385;-83
2022/10/18 01:43:39;;;;;;;17.98;8.15;;;;;;;18.07;100.00;100565.91;12208403;19;20015;-83
2022/10/18 01:47:44;;;;;;;21.55;8.93;;;;;;;17.98;100.00;100558.13;12207263;19;20014;-83
2022/10/18 01:51:46;;;;;;;22.95;7.85;;;;;;;17.91;100.00;100548.38;12181234;19;20042;-83
2022/10/18 01:56:00;;;;;;;27.08;8.18;;;;;;;17.82;100.00;100550.03;12208224;19;20452;-83
2022/10/18 02:00:11;;;;;;;27.33;7.70;;;;;;;17.71;100.00;100552.81;12188253;19;20019;-84
2022/10/18 02:04:28;;;;;;;19.50;7.38;;;;;;;17.58;100.00;100553.38;12206129;19;20024;-81
2022/10/18 02:08:56;;;;;;;21.65;7.13;;;;;;;17.41;100.00;100539.72;12211399;19;20014;-84
2022/10/18 02:12:59;;;;;;;20.83;7.85;;;;;;;17.27;100.00;100542.19;12188239;19;20029;-84
2022/10/18 02:17:04;;;;;;;;;;;;;;;17.14;100.00;100545.53;12212084;19;20097;-83
2022/10/18 02:21:09;;;;;;;30.23;7.88;;;;;;;17.00;100.00;100548.00;12189098;19;19911;-83
2022/10/18 02:25:17;;;;;;;24.77;7.75;;;;;;;16.86;100.00;100552.41;12209680;19;20643;-81
2022/10/18 02:29:19;;;;;;;22.98;8.38;;;;;;;16.76;100.00;100553.22;12211971;19;20006;-85
2022/10/18 02:33:26;;;;;;;18.80;7.85;;;;;;;16.73;100.00;100552.91;12186465;19;20022;-84
2022/10/18 02:37:36;;;;;;;20.40;7.43;;;;;;;16.75;100.00;100545.97;12210112;19;20011;-83
2022/10/18 02:41:38;;;;;;;24.83;8.38;;;;;;;16.82;100.00;100549.34;12209342;19;20006;-82
2022/10/18 02:45:40;;;;;;;22.30;8.30;;;;;;;16.89;100.00;100553.81;12187667;19;20021;-84
2022/10/18 02:49:41;;;;;;;16.20;8.20;;;;;;;16.94;100.00;100574.16;12208957;19;20070;-83
2022/10/18 02:53:43;;;;;;;28.48;8.82;;;;;;;16.96;100.00;100583.09;12207857;19;20074;-84
2022/10/18 02:57:45;;;;;;;20.48;8.43;;;;;;;16.95;100.00;100583.34;12188087;19;20011;-84
2022/10/18 03:01:46;;;;;;;26.20;9.95;;;;;;;16.96;100.00;100580.31;12206283;19;20074;-85
2022/10/18 03:05:49;;;;;;;20.10;7.90;;;;;;;17.01;100.00;100582.25;12208736;19;20365;-83
2022/10/18 03:09:51;;;;;;;25.35;8.82;;;;;;;17.06;100.00;100579.47;12184843;19;20021;-84
2022/10/18 03:13:52;;;;;;;25.30;8.07;;;;;;;17.11;100.00;100581.47;12206387;19;20031;-83
2022/10/18 03:17:54;;;;;;;28.02;9.30;;;;;;;17.15;100.00;100591.75;12189974;19;20074;-82
2022/10/18 03:21:56;;;;;;;22.48;8.63;;;;;;;17.14;100.00;100615.16;12210022;19;20033;-85
2022/10/18 03:25:57;;;;;;;22.30;8.95;;;;;;;17.04;100.00;100643.81;12224350;19;20341;-84
2022/10/18 03:29:59;;;;;;;20.45;8.93;;;;;;;17.02;100.00;100628.50;12203127;19;20011;-85
2022/10/18 03:34:01;;;;;;;15.40;9.00;;;;;;;17.05;100.00;100644.66;12224560;19;20564;-83
2022/10/18 03:38:03;;;;;;;21.92;10.43;;;;;;;17.01;100.00;100640.72;12222163;19;20420;-83
2022/10/18 03:42:04;;;;;;;25.83;11.32;;;;;;;17.02;100.00;100637.66;12200406;19;20711;-83
2022/10/18 03:46:06;;;;;;;17.52;10.38;;;;;;;17.03;100.00;100630.16;12221611;19;20427;-82
2022/10/18 03:50:08;;;;;;;22.85;10.95;;;;;;;17.06;100.00;100635.16;12219053;19;20074;-82
2022/10/18 03:54:10;;;;;;;23.33;11.77;;;;;;;17.06;100.00;100630.44;12200691;19;20007;-82
2022/10/18 03:58:11;;;;;;;21.90;11.65;;;;;;;17.12;100.00;100620.16;12250547;19;20014;-83
2022/10/18 04:02:13;;;;;;;23.55;11.40;;;;;;;17.16;100.00;100615.69;12250490;19;20013;-84
2022/10/18 04:06:15;;;;;;;16.35;9.13;;;;;;;17.18;100.00;100618.22;12226653;19;20014;-84
2022/10/18 04:10:17;;;;;;;24.92;10.05;;;;;;;17.19;100.00;100619.88;12227164;19;20472;-82
2022/10/18 04:14:20;;;;;;;21.67;10.52;;;;;;;17.20;100.00;100618.78;12228694;19;20484;-84
2022/10/18 04:18:21;;;;;;;23.77;11.60;;;;;;;17.25;100.00;100629.94;12205071;19;20073;-85
2022/10/18 04:22:23;;;;;;;20.42;9.60;;;;;;;17.24;100.00;100626.31;12225903;19;20046;-83
2022/10/18 04:26:25;;;;;;;24.20;10.25;;;;;;;17.24;100.00;100651.38;12229074;19;20426;-83
2022/10/18 04:30:26;;;;;;;20.33;11.13;;;;;;;17.16;100.00;100665.00;12205749;19;20094;-86
2022/10/18 04:34:28;;;;;;;17.08;9.80;;;;;;;17.13;100.00;100637.69;12225508;19;20068;-85
2022/10/18 04:38:30;;;;;;;19.10;10.48;;;;;;;17.13;100.00;100652.44;12223189;19;20010;-85
2022/10/18 04:42:31;;;;;;;19.63;9.60;;;;;;;17.16;100.00;100646.34;12198157;19;20015;-85
2022/10/18 04:46:34;;;;;;;16.07;9.40;;;;;;;17.20;100.00;100638.28;12222265;19;20027;-84
2022/10/18 04:50:35;;;;;;;21.30;9.82;;;;;;;17.23;100.00;100641.38;12220636;19;20034;-85
2022/10/18 04:54:47;;;;;;;21.65;8.45;;;;;;;17.24;100.00;100626.31;12196273;19;20034;-83
2022/10/18 04:58:49;;;;;;;39.55;10.88;;;;;;;17.25;100.00;100638.28;12217414;19;20476;-83
2022/10/18 05:02:55;;;;;;;22.42;9.98;;;;;;;17.22;100.00;100645.28;12220856;19;20011;-83
2022/10/18 05:06:57;;;;;;;16.80;8.80;;;;;;;17.22;100.00;100642.47;12197568;19;20010;-85
2022/10/18 05:10:59;;;;;;;21.08;9.75;;;;;;;17.25;100.00;100641.94;12219125;19;20021;-82
2022/10/18 05:15:01;;;;;;;22.40;10.23;;;;;;;17.26;100.00;100642.75;12195423;19;20075;-82
2022/10/18 05:19:04;;;;;;;19.57;10.03;;;;;;;17.25;100.00;100628.00;12247939;19;20271;-81
2022/10/18 05:23:09;;;;;;;24.55;10.07;;;;;;;17.26;100.00;100628.84;12222242;19;20011;-81
2022/10/18 05:27:11;;;;;;;18.65;9.27;;;;;;;17.24;100.00;100628.25;12197967;19;20022;-81
2022/10/18 05:31:12;;;;;;;19.58;9.55;;;;;;;17.22;100.00;100622.97;12219113;19;20010;-81
2022/10/18 05:35:14;;;;;;;22.75;9.52;;;;;;;17.21;100.00;100624.06;12217525;19;20030;-80
2022/10/18 05:39:16;;;;;;;23.52;11.20;;;;;;;17.21;100.00;100626.88;12197161;19;20507;-81
2022/10/18 05:43:17;;;;;;;27.15;10.40;;;;;;;17.19;100.00;100620.75;12211188;19;20014;-83
2022/10/18 05:47:19;;;;;;;21.73;9.88;;;;;;;17.18;100.00;100613.50;12219613;19;20010;-82
2022/10/18 05:51:22;;;;;;;23.40;9.35;;;;;;;17.17;100.00;100603.47;12200484;19;20033;-83
2022/10/18 05:55:24;;;;;;;17.45;9.70;;;;;;;17.12;100.00;100606.22;12234308;19;20018;-82
2022/10/18 05:59:25;;;;;;;25.17;10.30;;;;;;;17.08;100.00;100613.47;12214595;19;20478;-82
2022/10/18 06:03:29;;;;;;;23.23;11.10;;;;;;;17.06;100.00;100612.91;12207458;19;20015;-80
2022/10/18 06:07:31;;;;;;;23.75;10.68;;;;;;;17.08;100.00;100600.38;12242089;19;20014;-81
2022/10/18 06:11:35;;;;;;;21.73;9.32;;;;;;;17.15;100.00;100616.00;12225224;19;20011;-79
2022/10/18 06:15:36;;;;;;;;;;;;;;;17.13;100.00;100619.03;12189495;19;20007;-82
2022/10/18 06:19:38;;;;;;;18.33;9.40;;;;;;;17.15;100.00;100627.97;12214457;19;20318;-82
2022/10/18 06:23:39;;;;;;;17.33;9.40;;;;;;;17.19;100.00;100640.25;12215044;19;20011;-79
2022/10/18 06:27:41;;;;;;;18.08;9.00;;;;;;;17.20;100.00;100646.66;12245002;19;20003;-79
2022/10/18 06:31:43;;;;;;;16.10;9.48;;;;;;;17.22;100.00;100650.84;12248229;19;20018;-82
2022/10/18 06:35:56;;;;;;;20.65;9.68;;;;;;;17.27;100.00;100653.63;12214640;19;20011;-83
2022/10/18 06:39:58;;;;;;;21.67;10.57;;;;;;;17.31;100.00;100643.63;12192403;19;20006;-82
2022/10/18 06:44:05;;;;;;;15.52;9.13;;;;;;;17.35;100.00;100643.06;12212971;19;20002;-82
2022/10/18 06:48:07;;;;;;;18.13;9.65;;;;;;;17.41;100.00;100651.16;12192548;19;20030;-81
2022/10/18 06:52:09;;;;;;;21.80;10.10;;;;;;;17.48;100.00;100665.66;12214720;19;20003;-81
2022/10/18 06:56:12;;;;;;;23.52;10.13;;;;;;;17.47;100.00;100671.50;12219068;19;20014;-81
2022/10/18 07:00:14;;;;;;;26.52;9.90;;;;;;;17.43;100.00;100678.72;12204980;19;20102;-81
2022/10/18 07:04:15;;;;;;;17.65;9.23;;;;;;;17.54;100.00;100674.88;12224158;19;20354;-81
2022/10/18 07:08:17;;;;;;;14.85;9.48;;;;;;;17.67;100.00;100676.31;12224482;19;20007;-82
2022/10/18 07:12:19;;;;;;;21.50;10.82;;;;;;;17.76;100.00;100692.19;12203646;19;20038;-82
2022/10/18 07:16:20;;;;;;;24.00;9.75;;;;;;;17.80;100.00;100686.94;12228229;19;20011;-81
2022/10/18 07:20:22;;;;;;;15.27;9.48;;;;;;;17.89;100.00;100695.59;12227178;19;20018;-81
2022/10/18 07:24:24;;;;;;;17.58;9.93;;;;;;;17.93;100.00;100693.91;12202447;19;20011;-83
2022/10/18 07:28:26;;;;;;;19.85;9.68;;;;;;;18.01;100.00;100704.53;12262495;19;20007;-80
2022/10/18 07:32:28;;;;;;;16.33;10.35;;;;;;;18.09;100.00;100708.72;12270271;19;20013;-77
2022/10/18 07:36:29;;;;;;;16.73;9.00;;;;;;;18.22;100.00;100709.00;12236613;19;20059;-80
2022/10/18 07:40:31;;;;;;;17.92;9.98;;;;;;;18.37;100.00;100718.47;12229712;19;20051;-83
2022/10/18 07:44:33;;;;;;;17.60;9.70;;;;;;;18.45;100.00;100712.34;12223898;19;20027;-82
2022/10/18 07:48:34;;;;;;;17.50;9.45;;;;;;;18.58;100.00;100719.28;12210827;19;20030;-81
2022/10/18 07:52:36;;;;;;;13.35;8.48;;;;;;;18.73;100.00;100715.63;12232793;19;20010;-81
2022/10/18 07:56:37;;;;;;;14.52;8.93;;;;;;;18.89;100.00;100712.56;12227089;19;20015;-83
2022/10/18 08:00:39;;;;;;;14.18;8.38;;;;;;;19.04;100.00;100711.69;12202579;19;20010;-80
2022/10/18 08:04:40;;;;;;;20.35;9.60;;;;;;;19.15;100.00;100728.41;12220267;19;20014;-82
2022/10/18 08:08:43;;;;;;;18.60;8.23;;;;;;;19.23;100.00;100711.88;12221095;19;20405;-82
2022/10/18 08:12:45;;;;;;;18.33;8.15;;;;;;;19.15;100.00;100717.22;12200363;19;20006;-81
2022/10/18 08:16:46;;;;;;;13.45;8.05;;;;;;;19.04;100.00;100724.81;12222839;19;20011;-80
2022/10/18 08:20:48;;;;;;;18.85;8.48;;;;;;;19.02;100.00;100722.28;12221615;19;20373;-80
2022/10/18 08:24:49;;;;;;;15.02;8.73;;;;;;;19.09;100.00;100725.63;12196093;19;20074;-80
2022/10/18 08:28:52;;;;;;;15.02;8.52;;;;;;;19.20;100.00;100722.81;12217248;19;20010;-79
2022/10/18 08:33:13;;;;;;;13.93;8.00;;;;;;;19.40;100.00;100719.09;12198665;19;20020;-80
2022/10/18 08:37:15;;;;;;;14.30;8.63;;;;;;;19.72;100.00;100724.25;12220372;19;20634;-81
2022/10/18 08:41:17;;;;;;;15.70;7.57;;;;;;;20.19;100.00;100722.81;12191540;19;20842;-79
2022/10/18 08:45:19;;;;;;;17.00;8.20;;;;;;;20.40;100.00;100729.91;12188956;19;20018;-80
2022/10/18 08:49:49;;;;;;;13.48;8.02;;;;;;;20.86;100.00;100725.88;12222034;19;20026;-80
2022/10/18 08:54:01;;;;;;;12.38;7.85;;;;;;;21.07;100.00;100732.06;12219413;19;20015;-79
2022/10/18 08:58:18;;;;;;;14.95;7.90;;;;;;;21.00;100.00;100738.03;12203118;19;20030;-79
2022/10/18 09:02:38;;;;;;;14.23;8.07;;;;;;;20.90;100.00;100740.94;12223454;19;20007;-79
2022/10/18 09:06:53;;;;;;;18.75;8.30;;;;;;;20.83;100.00;100746.91;12198806;19;20034;-79
2022/10/18 09:11:05;;;;;;;15.15;8.57;;;;;;;20.71;100.00;100749.25;12222125;19;20018;-81
2022/10/18 09:15:16;;;;;;;21.23;9.03;;;;;;;20.56;100.00;100757.81;12198573;19;20011;-81
2022/10/18 09:19:42;;;;;;;15.38;9.18;;;;;;;20.52;100.00;100753.88;12220798;19;20357;-81
2022/10/18 09:23:55;;;;;;;15.68;8.88;;;;;;;20.58;100.00;100759.16;12219448;19;20401;-80
2022/10/18 09:28:12;;;;;;;15.75;8.02;;;;;;;20.67;100.00;100764.97;12202098;19;20358;-80
2022/10/18 09:32:32;;;;;;;16.48;9.70;;;;;;;20.67;100.00;100768.63;12220934;19;20018;-81
2022/10/18 09:36:37;;;;;;;16.33;9.90;;;;;;;20.64;100.00;100768.34;12202423;19;20006;-82
2022/10/18 09:41:02;;;;;;;16.30;9.80;;;;;;;20.42;100.00;100775.25;12225587;19;20010;-80
2022/10/18 09:45:25;;;;;;;18.20;10.23;;;;;;;20.31;100.00;100759.63;12210883;19;20006;-80
2022/10/18 09:49:49;;;;;;;13.35;9.65;;;;;;;20.32;100.00;100764.13;12221990;19;20004;-80
2022/10/18 09:54:07;;;;;;;17.42;9.95;;;;;;;20.38;100.00;100762.97;12212761;19;20010;-81
2022/10/18 09:58:12;;;;;;;19.48;11.43;;;;;;;20.69;100.00;100765.50;12197118;19;20011;-79
2022/10/18 10:02:22;;;;;;;20.27;12.10;;;;;;;21.03;100.00;100764.59;12214230;19;20014;-79
2022/10/18 10:06:33;;;;;;;17.63;11.73;;;;;;;21.13;100.00;100770.13;12194326;19;20070;-78
2022/10/18 10:10:39;;;;;;;21.75;13.32;;;;;;;21.05;100.00;100770.75;12213683;19;20018;-78
2022/10/18 10:14:43;;;;;;;25.42;14.10;;;;;;;20.83;100.00;100774.06;12209876;19;20014;-80
2022/10/18 10:18:52;;;;;;;18.63;13.68;;;;;;;20.56;100.00;100774.63;12188168;19;20006;-79
2022/10/18 10:23:05;;;;;;;19.67;13.45;;;;;;;20.68;100.00;100781.50;12207909;19;20093;-79
2022/10/18 10:27:16;;;;;;;21.35;12.60;;;;;;;20.92;100.00;100778.75;12191484;19;20478;-79
2022/10/18 10:31:24;;;;;;;18.88;12.38;;;;;;;21.10;100.00;100782.75;12210816;19;20052;-79
2022/10/18 10:35:30;;;;;;;18.85;11.10;;;;;;;21.25;100.00;100780.91;12207791;19;20015;-78
2022/10/18 10:40:12;;;;;;;14.18;9.82;;;;;;;21.30;100.00;100787.31;12189117;19;20518;-79
2022/10/18 10:44:24;;;;;;;12.25;8.63;;;;;;;21.36;100.00;100788.13;12207112;19;20007;-79
2022/10/18 10:48:29;;;;;;;13.50;7.80;;;;;;;21.44;100.00;100778.19;12188324;19;20027;-79
2022/10/18 10:52:37;;;;;;;13.25;6.80;;;;;;;21.55;100.00;100776.94;12216593;19;20042;-78
2022/10/18 10:57:01;;;;;;;10.63;5.60;;;;;;;21.69;100.00;100793.88;12207886;19;20480;-79
2022/10/18 11:01:31;;;;;;;7.43;4.80;;;;;;;21.63;100.00;100798.72;12186578;19;20011;-79
2022/10/18 11:05:42;;;;;;;7.38;4.18;;;;;;;21.74;100.00;100791.81;12208986;19;20015;-78
2022/10/18 11:09:49;;;;;;;5.93;3.83;;;;;;;21.84;100.00;100802.09;12187317;19;20015;-79
2022/10/18 11:14:01;;;;;;;9.40;4.30;;;;;;;21.92;100.00;100800.56;12206893;19;20019;-79
2022/10/18 11:18:26;;;;;;;9.80;3.55;;;;;;;21.79;100.00;100800.16;12190415;19;20034;-79
2022/10/18 11:22:35;;;;;;;7.22;3.45;;;;;;;21.66;100.00;100803.72;12210543;19;20472;-78
2022/10/18 11:27:02;;;;;;;5.60;3.20;;;;;;;21.45;100.00;100799.50;12212765;19;20006;-78
2022/10/18 11:31:30;;;;;;;11.15;3.42;;;;;;;21.14;100.00;100797.84;12190719;19;20019;-79
2022/10/18 11:35:41;;;;;;;5.28;2.78;;;;;;;21.04;100.00;100802.72;12211639;19;20423;-79
2022/10/18 11:39:49;;;;;;;5.82;3.08;;;;;;;20.77;100.00;100801.31;12190345;19;20017;-79
2022/10/18 11:44:00;;;;;;;8.00;3.70;;;;;;;20.64;100.00;100796.34;12212215;19;20106;-79
2022/10/18 11:48:27;;;;;;;7.68;4.40;;;;;;;20.64;100.00;100790.75;12201759;19;20021;-79
2022/10/18 11:52:50;;;;;;;6.07;2.72;;;;;;;20.66;100.00;100791.31;12251556;19;20014;-78
2022/10/18 11:57:30;;;;;;;7.57;1.90;;;;;;;20.67;100.00;100782.63;12274327;19;20018;-78
2022/10/18 12:01:46;;;;;;;6.85;2.00;;;;;;;20.64;100.00;100786.03;12134130;19;2004208;-80
2022/10/18 12:05:49;;;;;;;6.85;1.90;;;;;;;20.48;100.00;100788.06;12225054;19;20472;-79
2022/10/18 12:09:53;;;;;;;7.32;2.05;;;;;;;20.39;100.00;100789.81;12201137;19;20035;-80
2022/10/18 12:13:59;;;;;;;2.78;1.67;;;;;;;20.83;100.00;100788.09;12221001;19;20014;-79
2022/10/18 12:18:09;;;;;;;4.28;1.80;;;;;;;21.43;100.00;100773.72;12200133;19;20010;-80
2022/10/18 12:22:41;;;;;;;3.47;1.55;;;;;;;21.72;100.00;100782.06;12221286;19;20010;-79
2022/10/18 12:26:47;;;;;;;3.90;1.20;;;;;;;21.73;100.00;100778.09;12223999;19;20031;-80
2022/10/18 12:31:04;;;;;;;2.90;1.10;;;;;;;21.78;100.00;100776.06;12198902;19;20062;-79
2022/10/18 12:35:13;;;;;;;2.03;1.08;;;;;;;22.00;100.00;100777.44;12218773;19;20046;-80
2022/10/18 12:39:24;;;;;;;3.65;1.00;;;;;;;22.08;100.00;100776.78;12199102;19;20030;-80
2022/10/18 12:43:55;;;;;;;5.00;1.00;;;;;;;22.23;100.00;100770.13;12219043;19;20669;-80
2022/10/18 12:48:05;;;;;;;1.67;0.95;;;;;;;22.29;100.00;100769.72;12200944;19;20103;-80
2022/10/18 12:52:21;;;;;;;3.60;1.00;;;;;;;22.17;100.00;100762.91;12219129;19;20027;-80
2022/10/18 12:56:28;;;;;;;2.05;1.08;;;;;;;22.18;100.00;100756.16;12215836;19;20010;-81
2022/10/18 13:00:30;;;;;;;5.63;0.93;;;;;;;22.17;100.00;100757.31;12195469;19;20680;-80
2022/10/18 13:04:33;;;;;;;2.03;0.90;;;;;;;22.15;100.00;100751.13;12216036;19;20006;-80
2022/10/18 13:08:40;;;;;;;2.63;0.93;;;;;;;22.27;100.00;100748.72;12220731;19;20011;-80
2022/10/18 13:12:42;;;;;;;2.45;1.10;;;;;;;22.53;100.00;100749.13;12198325;19;20018;-81
2022/10/18 13:16:52;;;;;;;3.13;0.90;;;;;;;22.76;98.30;100750.13;12219058;19;20014;-80
2022/10/18 13:21:07;;;;;;;2.35;0.90;;;;;;;23.08;96.27;100754.91;12222527;19;20018;-80
2022/10/18 13:25:46;;;;;;;2.63;0.85;;;;;;;23.41;93.07;100743.56;12197902;19;20022;-79
2022/10/18 13:29:59;;;;;;;1.83;0.60;;;;;;;23.37;90.26;100745.31;12223397;19;20010;-79
2022/10/18 13:34:21;;;;;;;3.22;0.63;;;;;;;23.15;91.50;100752.50;12227428;19;19999;-79
2022/10/18 13:38:31;;;;;;;1.10;0.80;;;;;;;22.83;92.14;100756.16;12258887;19;20012;-78
2022/10/18 13:42:33;;;;;;;1.67;0.77;;;;;;;22.42;93.72;100745.63;12239753;19;20009;-78
2022/10/18 13:46:35;;;;;;;2.20;0.77;;;;;;;22.15;95.35;100754.75;12264481;19;20015;-77
2022/10/18 13:50:41;;;;;;;1.10;0.80;;;;;;;21.90;96.50;100750.38;12263459;19;20006;-78
2022/10/18 13:55:26;;;;;;;2.05;0.70;;;;;;;21.72;97.72;100754.84;12235692;19;20014;-77
2022/10/18 14:00:07;;;;;;;1.20;0.57;;;;;;;21.70;98.73;100757.09;12261561;19;20002;-78
2022/10/18 14:04:36;;;;;;;4.15;0.52;;;;;;;21.71;98.79;100755.94;12233066;19;20054;-79
2022/10/18 14:08:59;;;;;;;4.30;0.90;;;;;;;21.63;99.14;100753.84;12230207;19;20111;-79
2022/10/18 14:13:20;;;;;;;2.40;0.95;;;;;;;21.48;100.00;100759.66;12204561;19;20446;-80
2022/10/18 14:17:41;;;;;;;1.67;0.70;;;;;;;21.32;100.00;100756.97;12218845;19;20018;-80
2022/10/18 14:21:52;;;;;;;1.40;0.80;;;;;;;21.14;100.00;100767.00;12199888;19;20014;-80
2022/10/18 14:26:14;;;;;;;34.55;18.98;;;;;;;20.86;100.00;100768.72;12215667;19;20095;-79
2022/10/18 14:30:19;;;;;;;6.17;2.30;;;;;;;20.65;100.00;100767.25;12194914;19;20017;-80
2022/10/18 14:34:21;;;;;;;2.47;1.10;;;;;;;20.53;100.00;100769.59;12213140;19;20243;-80
2022/10/18 14:38:23;;;;;;;1.27;0.87;;;;;;;20.41;100.00;100770.78;12214572;19;20083;-81
2022/10/18 14:42:26;;;;;;;5.78;1.10;;;;;;;20.34;100.00;100775.84;12192825;19;20472;-80
2022/10/18 14:46:29;;;;;;;2.75;0.75;;;;;;;20.31;100.00;100776.44;12215814;19;20013;-80
2022/10/18 14:50:32;;;;;;;5.47;0.77;;;;;;;20.29;100.00;100783.47;12213765;19;20027;-81
2022/10/18 14:54:37;;;;;;;6.70;0.90;;;;;;;20.29;100.00;100784.31;12189454;19;20046;-80
2022/10/18 14:58:41;;;;;;;2.65;0.70;;;;;;;20.27;100.00;100786.56;12232149;19;20014;-79
2022/10/18 15:02:42;;;;;;;1.73;0.90;;;;;;;20.23;100.00;100789.09;12255434;19;20011;-79
2022/10/18 15:06:44;;;;;;;4.53;0.70;;;;;;;20.18;100.00;100789.13;12229779;19;20045;-81
2022/10/18 15:10:46;;;;;;;4.20;1.20;;;;;;;20.16;100.00;100782.97;12216672;19;20050;-81
2022/10/18 15:14:48;;;;;;;;;;;;;;;20.12;100.00;100784.69;12216887;19;20010;-81
2022/10/18 15:19:14;;;;;;;3.63;1.20;;;;;;;20.11;100.00;100787.78;12196009;19;19910;-80
2022/10/18 15:23:25;;;;;;;11.50;2.30;;;;;;;20.09;100.00;100787.25;12222496;19;20015;-80
2022/10/18 15:27:33;;;;;;;4.90;1.85;;;;;;;20.06;100.00;100782.22;12206025;19;20006;-81
2022/10/18 15:31:41;;;;;;;10.77;1.65;;;;;;;19.99;100.00;100788.97;12225124;19;20404;-81
2022/10/18 15:35:43;;;;;;;6.10;1.00;;;;;;;19.92;100.00;100791.25;12227397;19;20014;-82
2022/10/18 15:39:45;;;;;;;3.05;0.85;;;;;;;19.87;100.00;100787.63;12205282;19;20097;-82
2022/10/18 15:43:46;;;;;;;2.60;1.13;;;;;;;19.81;100.00;100792.44;12224259;19;20011;-81
2022/10/18 15:48:00;;;;;;;4.40;0.98;;;;;;;19.79;100.00;100791.88;12230694;19;20462;-81
2022/10/18 15:52:02;;;;;;;5.70;1.27;;;;;;;19.75;100.00;100796.38;12201963;19;20028;-80
2022/10/18 15:56:08;;;;;;;7.13;2.38;;;;;;;19.70;100.00;100804.81;12222859;19;20025;-81
2022/10/18 16:00:18;;;;;;;3.78;1.10;;;;;;;19.63;100.00;100798.63;12202518;19;20011;-80
2022/10/18 16:04:24;;;;;;;3.65;1.52;;;;;;;19.54;100.00;100799.25;12222777;19;20070;-81
2022/10/18 16:08:35;;;;;;;2.75;0.80;;;;;;;19.45;100.00;100795.34;12228441;19;20007;-80
2022/10/18 16:12:37;;;;;;;1.25;0.90;;;;;;;19.34;100.00;100790.94;12206832;19;20006;-81
2022/10/18 16:16:40;;;;;;;4.65;1.13;;;;;;;19.21;100.00;100794.31;12225452;19;20123;-82
2022/10/18 16:20:42;;;;;;;8.75;1.30;;;;;;;19.07;100.00;100788.50;12224521;19;20002;-81
2022/10/18 16:24:44;;;;;;;3.78;1.45;;;;;;;18.95;100.00;100793.53;12198675;19;20007;-80
2022/10/18 16:28:46;;;;;;;3.47;0.82;;;;;;;18.84;100.00;100792.72;12221833;19;20050;-81
2022/10/18 16:32:51;;;;;;;5.55;1.27;;;;;;;18.71;100.00;100799.69;12222675;19;20018;-81
2022/10/18 16:36:54;;;;;;;9.18;1.30;;;;;;;18.58;100.00;100800.22;12202367;19;20077;-81
2022/10/18 16:40:56;;;;;;;7.15;1.50;;;;;;;18.46;100.00;100811.69;12228204;19;20010;-81
2022/10/18 16:44:58;;;;;;;14.82;1.42;;;;;;;18.44;100.00;100817.56;12210766;19;20066;-81
2022/10/18 16:49:00;;;;;;;6.40;1.13;;;;;;;18.39;100.00;100808.34;12226790;19;20002;-81
2022/10/18 16:53:02;;;;;;;21.50;8.52;;;;;;;18.32;100.00;100816.13;12218424;19;20038;-80
2022/10/18 16:57:04;;;;;;;15.50;5.45;;;;;;;18.25;100.00;100819.19;12198662;19;20023;-80
2022/10/18 17:01:06;;;;;;;17.77;2.97;;;;;;;18.14;100.00;100829.47;12215736;19;20042;-80
2022/10/18 17:05:09;;;;;;;15.63;1.45;;;;;;;18.06;100.00;100832.81;12218998;19;20022;-81
2022/10/18 17:09:13;;;;;;;10.40;1.75;;;;;;;18.00;100.00;100839.50;12201343;19;20038;-80
2022/10/18 17:13:15;;;;;;;7.93;1.15;;;;;;;17.96;100.00;100833.63;12222105;19;20010;-80
2022/10/18 17:17:17;;;;;;;4.45;1.00;;;;;;;17.92;100.00;100843.66;12235257;19;20006;-80
2022/10/18 17:21:18;;;;;;;10.50;1.27;;;;;;;17.84;100.00;100841.38;12250774;19;19987;-80
2022/10/18 17:25:20;;;;;;;11.95;1.60;;;;;;;17.80;100.00;100834.69;12255186;19;20018;-81
2022/10/18 17:29:22;;;;;;;8.75;1.33;;;;;;;17.76;100.00;100851.09;12230445;19;20011;-82
2022/10/18 17:33:23;;;;;;;8.35;1.33;;;;;;;17.75;100.00;100848.56;12204202;19;20578;-81
2022/10/18 17:37:25;;;;;;;11.73;1.80;;;;;;;17.76;100.00;100851.09;12219475;19;20076;-81
2022/10/18 17:41:27;;;;;;;11.43;1.17;;;;;;;17.79;100.00;100851.69;12214585;19;20019;-82
2022/10/18 17:45:29;;;;;;;13.32;1.52;;;;;;;17.77;100.00;100852.78;12195018;19;20003;-82
2022/10/18 17:49:31;;;;;;;4.60;1.50;;;;;;;17.77;100.00;100852.78;12225089;19;20368;-81
2022/10/18 17:53:33;;;;;;;16.45;2.60;;;;;;;17.77;100.00;100852.78;12218128;19;20018;-80
2022/10/18 17:57:35;;;;;;;9.38;1.70;;;;;;;17.76;100.00;100858.63;12197282;19;20018;-81
2022/10/18 18:01:37;;;;;;;8.90;3.40;;;;;;;17.76;100.00;100864.19;12210761;19;20010;-82
2022/10/18 18:05:39;;;;;;;4.90;1.90;;;;;;;17.77;100.00;100857.50;12216341;19;20382;-82
2022/10/18 18:09:41;;;;;;;19.20;2.40;;;;;;;17.77;100.00;100863.94;12195330;19;20079;-81
2022/10/18 18:13:43;;;;;;;6.20;2.28;;;;;;;17.79;100.00;100860.91;12214644;19;20067;-81
2022/10/18 18:17:45;;;;;;;10.00;2.85;;;;;;;17.78;100.00;100856.41;12213038;19;20007;-81
2022/10/18 18:21:58;;;;;;;4.85;1.85;;;;;;;17.72;100.00;100851.91;12193395;19;20007;-82
2022/10/18 18:25:59;;;;;;;13.07;1.73;;;;;;;17.60;100.00;100845.72;12222382;19;20006;-79
2022/10/18 18:30:01;;;;;;;8.38;2.00;;;;;;;17.46;100.00;100849.00;12199908;19;20327;-80
2022/10/18 18:34:09;;;;;;;13.65;2.25;;;;;;;17.33;100.00;100851.44;12212627;19;20537;-81